Flight Track Log - Related Links

Times and Time Zones

All times are in EDT time to prevent confusion due to time zone crossing. See the UAL341 flight status page for this flight to view local times or setup timezone preferences in your user account.

Time Position Orientation Groundspeed Altitude Reporting Facility
EDT Latitude Longitude Course Direction KTS MPH feet Rate Location/Type
Thu 10:09:24 AM 29.9764 -95.2983 98° East 148 170 1,200  Level Houston Center
Thu 10:10:25 AM 29.9608 -95.2425 108° East 191 220 2,900 1,680 Climbing Houston Center
Thu 10:11:04 AM 29.9492 -95.1997 107° East 209 241 4,000 1,636 Climbing Houston Center
Thu 10:11:20 AM 29.9444 -95.1792 105° East 253 291 4,400 2,710 Climbing Houston Center
Thu 10:12:06 AM 29.9386 -95.1122 96° East 275 316 6,800 3,344 Climbing Houston Center
Thu 10:12:21 AM 29.9358 -95.0864 97° East 275 316 7,800 2,710 Climbing Houston Center
Thu 10:13:00 AM 29.8926 -94.6031 98° East  Level FlightAware Approximate
Thu 10:13:08 AM 29.9297 -95.0200 96° East 286 329 9,600  Level Houston Center
Thu 10:14:00 AM 29.8754 -94.4568 98° East  Level FlightAware Approximate
Thu 10:14:10 AM 29.9208 -94.9172 96° East 317 365 11,400  Level Houston Center
Thu 10:15:13 AM 29.9086 -94.7933 96° East 382 440 13,100 2,016 Climbing Houston Center
Thu 10:16:15 AM 29.8969 -94.6661 96° East 397 457 15,600 1,984 Climbing Houston Center
Thu 10:17:17 AM 29.8833 -94.5333 97° East 413 475 17,200 1,645 Climbing Houston Center
Thu 10:18:19 AM 29.8681 -94.3678 96° East 432 497 19,000 1,790 Climbing Houston Center
Thu 10:19:21 AM 29.8636 -94.2250 92° East 451 519 20,900 1,694 Climbing Houston Center
Thu 10:20:23 AM 29.8886 -94.0700 79° East 461 531 22,500 1,500 Climbing Houston Center
Thu 10:21:25 AM 29.9144 -93.9242 78° East 467 537 24,000 1,306 Climbing Houston Center
Thu 10:22:27 AM 29.9389 -93.7742 79° East 478 550 25,200 1,200 Climbing Houston Center
Thu 10:23:30 AM 29.9636 -93.6219 79° East 487 560 26,500 1,008 Climbing Houston Center
Thu 10:24:32 AM 29.9886 -93.4661 79° East 500 575 27,300 968 Climbing Houston Center
Thu 10:25:34 AM 30.0203 -93.2744 79° East 515 593 28,500 1,113 Climbing Houston Center
Thu 10:26:36 AM 30.0469 -93.1133 79° East 518 596 29,600 1,016 Climbing Houston Center
Thu 10:27:38 AM 30.0731 -92.9506 79° East 522 601 30,600 968 Climbing Houston Center
Thu 10:28:40 AM 30.0992 -92.7889 79° East 518 596 31,600 919 Climbing Houston Center
Thu 10:29:42 AM 30.1256 -92.6231 80° East 526 605 32,500 1,065 Climbing Houston Center
Thu 10:30:44 AM 30.1575 -92.4244 79° East 529 609 33,800 1,008 Climbing Houston Center
Thu 10:31:47 AM 30.1822 -92.2589 80° East 527 606 34,600 864 Climbing Houston Center
Thu 10:32:49 AM 30.2097 -92.0825 80° East 527 606 35,600 823 Climbing Houston Center
Thu 10:33:51 AM 30.2358 -91.9167 80° East 528 608 36,300 629 Climbing Houston Center
Thu 10:34:53 AM 30.2611 -91.7503 80° East 528 608 36,900 290 Climbing Houston Center
Thu 10:35:55 AM 30.2900 -91.5586 80° East 527 606 36,900  Level Houston Center
Thu 10:36:57 AM 30.3144 -91.3903 80° East 531 611 36,900  Level Houston Center
Thu 10:37:59 AM 30.3408 -91.2228 80° East 531 611 36,900  Level Houston Center
Thu 10:39:02 AM 30.3642 -91.0561 81° East 525 604 36,900  Level Houston Center
Thu 10:40:04 AM 30.3892 -90.8881 80° East 530 610 36,900  Level Houston Center
Thu 10:41:06 AM 30.4128 -90.7194 81° East 532 612 36,900 48 Level Houston Center
Thu 10:42:08 AM 30.4422 -90.5156 80° East 535 616 37,000 48 Climbing Houston Center
Thu 10:43:10 AM 30.4661 -90.3464 81° East 532 612 37,000  Level Houston Center
Thu 10:44:12 AM 30.4894 -90.1742 81° East 537 618 37,000 -48 Level Houston Center
Thu 10:45:14 AM 30.5139 -90.0042 80° East 533 613 36,900 -48 Descending Houston Center
Thu 10:46:16 AM 30.5375 -89.8300 81° East 535 616 36,900  Level Houston Center
Thu 10:47:19 AM 30.5614 -89.6553 81° East 537 618 36,900 48 Level Houston Center
Thu 10:48:21 AM 30.5833 -89.4828 82° East 537 618 37,000 48 Climbing Houston Center
Thu 10:49:23 AM 30.6064 -89.3103 81° East 539 620 37,000  Level Houston Center
Thu 10:50:25 AM 30.6319 -89.1022 82° East 543 625 37,000  Level Houston Center
Thu 10:51:27 AM 30.6522 -88.9333 82° East 537 618 37,000  Level Houston Center
Thu 10:52:29 AM 30.6731 -88.7636 82° East 535 616 37,000  Level Houston Center
Thu 10:53:31 AM 30.6947 -88.5939 82° East 536 617 37,000 -48 Level Houston Center
Thu 10:54:33 AM 30.7167 -88.4194 82° East 535 616 36,900 -48 Descending Houston Center
Thu 10:55:36 AM 30.7319 -88.2461 84° East 539 620 36,900 48 Level Houston Center
Thu 10:56:38 AM 30.7456 -88.0389 86° East 538 619 37,000  Climbing Houston Center
Thu 10:57:40 AM 30.7575 -87.8653 85° East 540 621 36,900  Descending Houston Center
Thu 10:58:28 AM 30.7653 -87.7369 86° East 533 613 37,000 56 Climbing Jacksonville Center
Thu 10:59:28 AM 30.7758 -87.5661 86° East 533 613 37,000  Level Jacksonville Center
Thu 11:00:28 AM 30.7861 -87.3925 86° East 533 613 37,000  Level Jacksonville Center
Thu 11:01:28 AM 30.7983 -87.2189 85° East 533 613 37,000  Level Jacksonville Center
Thu 11:02:28 AM 30.8064 -87.0453 87° East 533 613 37,000  Level Jacksonville Center
Thu 11:03:28 AM 30.8181 -86.8717 85° East 533 613 37,000  Level Jacksonville Center
Thu 11:04:28 AM 30.8297 -86.7003 85° East 533 613 37,000 -50 Level Jacksonville Center
Thu 11:05:28 AM 30.8242 -86.5308 92° East 533 613 36,900 -50 Descending Jacksonville Center
Thu 11:06:28 AM 30.8186 -86.3542 92° East 538 619 36,900  Level Jacksonville Center
Thu 11:07:28 AM 30.8150 -86.1822 91° East 538 619 36,900  Level Jacksonville Center
Thu 11:08:28 AM 30.8108 -86.0078 92° East 538 619 36,900 50 Level Jacksonville Center
Thu 11:09:28 AM 30.8089 -85.8336 91° East 538 619 37,000 50 Climbing Jacksonville Center
Thu 11:10:28 AM 30.8044 -85.6594 92° East 533 613 37,000 -50 Level Jacksonville Center
Thu 11:11:28 AM 30.8017 -85.4853 91° East 533 613 36,900 -50 Descending Jacksonville Center
Thu 11:12:28 AM 30.7967 -85.3158 92° East 533 613 36,900  Level Jacksonville Center
Thu 11:13:28 AM 30.7833 -85.1414 95° East 533 613 36,900  Level Jacksonville Center
Thu 11:14:28 AM 30.7403 -84.9592 105° East 530 610 36,900  Level Jacksonville Center
Thu 11:15:28 AM 30.6886 -84.7936 110° East 530 610 36,900 -500 Level Jacksonville Center
Thu 11:16:28 AM 30.6367 -84.6308 110° East 535 616 35,900 -850 Descending Jacksonville Center
Thu 11:17:28 AM 30.5989 -84.5022 109° East 540 621 35,200 -450 Descending Jacksonville Center
Thu 11:18:28 AM 30.5739 -84.3161 99° East 516 594 35,000 -100 Descending Jacksonville Center
Thu 11:19:28 AM 30.6006 -84.1453 80° East 516 594 35,000  Level Jacksonville Center
Thu 11:20:28 AM 30.6189 -83.9764 83° East 516 594 35,000 -450 Level Jacksonville Center
Thu 11:21:28 AM 30.6142 -83.7856 92° East 523 602 34,100 -950 Descending Jacksonville Center
Thu 11:22:28 AM 30.6111 -83.6192 91° East 523 602 33,100 -950 Descending Jacksonville Center
Thu 11:23:28 AM 30.6119 -83.4575 90° East 516 594 32,200 -1,250 Descending Jacksonville Center
Thu 11:24:28 AM 30.6061 -83.2883 92° East 516 594 30,600 -2,350 Descending Jacksonville Center
Thu 11:25:28 AM 30.5942 -83.1194 95° East 516 594 27,500 -1,850 Descending Jacksonville Center
Thu 11:26:28 AM 30.5044 -82.9914 129° Southeast 493 567 26,900 -300 Descending Jacksonville Center
Thu 11:27:28 AM 30.3958 -82.8806 139° Southeast 503 579 26,900 -50 Level Jacksonville Center
Thu 11:28:28 AM 30.2853 -82.7700 139° Southeast 508 585 26,800 -500 Descending Jacksonville Center
Thu 11:29:28 AM 30.1828 -82.6644 138° Southeast 508 585 25,900 -900 Descending Jacksonville Center
Thu 11:30:28 AM 30.0803 -82.5636 140° Southeast 496 571 25,000 -500 Descending Jacksonville Center
Thu 11:31:28 AM 29.9881 -82.4706 139° Southeast 491 565 24,900 -50 Descending Jacksonville Center
Thu 11:32:28 AM 29.8669 -82.4111 157° South 469 540 24,900 -200 Level Jacksonville Center
Thu 11:33:28 AM 29.7456 -82.3544 158° South 469 540 24,500 -700 Descending Jacksonville Center
Thu 11:34:28 AM 29.6242 -82.2953 157° South 469 540 23,500 -1,100 Descending Jacksonville Center
Thu 11:35:28 AM 29.5050 -82.2364 157° South 474 545 22,300 -1,800 Descending Jacksonville Center
Thu 11:36:28 AM 29.3897 -82.1800 157° South 467 537 19,900 -2,300 Descending Jacksonville Center
Thu 11:37:28 AM 29.2767 -82.1236 156° South 453 521 17,700 -2,300 Descending Jacksonville Center
Thu 11:38:28 AM 29.1678 -82.0697 157° South 439 505 15,300 -2,350 Descending Jacksonville Center
Thu 11:39:28 AM 29.0653 -82.0231 158° South 418 481 13,000 -1,800 Descending Jacksonville Center
Thu 11:40:28 AM 28.9689 -81.9742 156° South 401 461 11,700 -1,000 Descending Jacksonville Center
Thu 11:41:28 AM 28.8789 -81.9228 153° Southeast 366 421 11,000 -750 Descending Jacksonville Center
Thu 11:42:28 AM 28.8322 -81.8450 124° Southeast 312 359 10,200 -1,000 Descending Jacksonville Center
Thu 11:43:28 AM 28.7961 -81.7531 114° Southeast 304 350 9,000 -960 Descending Jacksonville Center
Thu 11:43:43 AM 28.8000 -81.7333 77° East 298 343 9,000  Level Orlando TRACON
Thu 11:44:43 AM 28.7667 -81.6500 115° Southeast 293 337 9,000 -350 Level Orlando TRACON
Thu 11:45:43 AM 28.7333 -81.5833 120° Southeast 236 272 8,300 -1,000 Descending Orlando TRACON
Thu 11:46:43 AM 28.7167 -81.5000 103° East 236 272 7,000 -1,289 Descending Orlando TRACON
Thu 11:47:44 AM 28.6833 -81.4333 120° Southeast 235 270 5,700 -1,388 Descending Orlando TRACON
Thu 11:48:44 AM 28.6500 -81.3833 127° Southeast 241 277 4,200 -1,450 Descending Orlando TRACON
Thu 11:49:44 AM 28.5833 -81.3500 156° South 223 257 2,800 -1,400 Descending Orlando TRACON

Login

Don't have an account? Register now (free) for customized features, flight alerts, and more!